Latest Coastal Weather Observations for Gunn Point

IDD60701

Issued at 3:15 am CST Wednesday 23 July 2014 (issued every 10 minutes, with the page automatically refreshed every 10 minutes)

About coastal observations | Map of coastal stations | Coastal observations for NT | Marine services | Other Formats
Station Details ID: 014023 Name: GUNN POINT Lat: -12.25 Lon: 131.04 Height: 25.0 m
Data from the previous 72 hours. | See also: Recent months for locations in Northern Territory
Date/Time
CST
Temp

°C
Wind Pressure Rain
since 9am
mm
Weather Cloud Vis
km
Sea
Height
m
Swell
Dir
 
Speed
knots
Gust
knots
hPa Trend Height
m
Period
s
Dir
23/03:00am 14.5 E 1 2 1013.2 - 0.0 - - - - - - -
23/02:30am 14.5 CALM 0 0 1013.4 - 0.0 - - - - - - -
23/02:00am 15.4 CALM 0 2 1013.8 - 0.0 - - - - - - -
23/01:30am 15.2 CALM 0 0 1013.9 - 0.0 - - - - - - -
23/01:00am 15.6 ENE 1 2 1014.3 - 0.0 - - - - - - -
23/12:30am 15.7 ENE 2 3 1014.2 - 0.0 - - - - - - -
23/12:00am 16.0 NE 2 4 1014.3 - 0.0 - - - - - - -
 
Date/Time
CST
Temp

°C
Wind Pressure Rain
since 9am
mm
Weather Cloud Vis
km
Sea
Height
m
Swell
Dir
 
Speed
knots
Gust
knots
hPa Trend Height
m
Period
s
Dir
22/11:30pm 15.7 NE 2 3 1014.4 - 0.0 - - - - - - -
22/11:00pm 16.0 NE 2 4 1014.7 - 0.0 - - - - - - -
22/10:30pm 15.9 CALM 0 3 1014.5 - 0.0 - - - - - - -
22/10:00pm 16.3 CALM 0 0 1014.7 - 0.0 - - - - - - -
22/09:30pm 17.9 NE 3 4 1014.2 - 0.0 - - - - - - -
22/09:00pm 15.8 ENE 3 4 1013.9 - 0.0 - - - - - - -
22/08:30pm 15.6 ENE 2 3 1013.5 - 0.0 - - - - - - -
22/08:00pm 16.4 NE 2 2 1013.4 - 0.0 - - - - - - -
22/07:30pm 18.2 NE 2 2 1012.8 - 0.0 - - - - - - -
22/07:00pm 21.6 NE 2 4 1012.8 - 0.0 - - - - - - -
22/06:30pm 23.4 NE 3 6 1012.1 - 0.0 - - - - - - -
22/06:00pm 24.9 NE 4 8 1011.8 - 0.0 - - - - - - -
22/05:30pm 26.3 NE 6 10 1011.7 - 0.0 - - - - - - -
22/05:00pm 27.1 NE 4 8 1011.6 - 0.0 - - - - - - -
22/04:30pm 27.8 NE 5 10 1011.3 - 0.0 - - - - - - -
22/04:00pm 27.9 ENE 7 12 1011.6 - 0.0 - - - - - - -
22/03:30pm 31.0 E 6 13 1011.5 - 0.0 - - - - - - -
22/03:00pm 30.6 E 7 13 1011.8 - 0.0 - - - - - - -
22/02:30pm 30.7 E 7 12 1012.1 - 0.0 - - - - - - -
22/02:00pm 30.7 E 7 12 1012.6 - 0.0 - - - - - - -
22/01:30pm 30.2 ESE 9 16 1013.1 - 0.0 - - - - - - -
22/01:00pm 30.1 E 9 14 1013.9 - 0.0 - - - - - - -
22/12:30pm 29.9 E 8 16 1014.4 - 0.0 - - - - - - -
22/12:00pm 28.3 SE 10 14 1015.1 - 0.0 - - - - - - -
22/11:30am 28.5 E 7 12 1015.7 - 0.0 - - - - - - -
22/11:00am 27.7 E 6 10 1016.3 - 0.0 - - - - - - -
22/10:30am 26.1 E 7 12 1016.5 - 0.0 - - - - - - -
22/10:00am 25.3 E 7 13 1017.0 - 0.0 - - - - - - -
22/09:30am 23.6 E 5 9 1017.0 - 0.0 - - - - - - -
22/09:00am 22.4 E 5 9 1016.9 - 0.0 - - - - - - -
22/08:30am 20.3 ESE 3 5 1016.7 - 0.0 - - - - - - -
22/08:00am 17.7 ESE 3 4 1016.3 - 0.0 - - - - - - -
22/07:30am 14.5 CALM 0 3 1015.7 - 0.0 - - - - - - -
22/07:00am 13.9 CALM 0 0 1015.6 - 0.0 - - - - - - -
22/06:30am 13.9 SE 1 2 1015.3 - 0.0 - - - - - - -
22/06:00am 14.1 SE 2 3 1015.0 - 0.0 - - - - - - -
22/05:30am 14.0 SE 2 3 1014.8 - 0.0 - - - - - - -
22/05:00am 14.1 SSE 1 2 1015.0 - 0.0 - - - - - - -
22/04:30am 14.6 CALM 0 0 1014.7 - 0.0 - - - - - - -
22/04:00am 14.1 CALM 0 0 1014.7 - 0.0 - - - - - - -
22/03:30am 14.7 CALM 0 0 1014.6 - 0.0 - - - - - - -
22/03:00am 14.4 CALM 0 0 1014.8 - 0.0 - - - - - - -
22/02:30am 14.3 CALM 0 0 1015.0 - 0.0 - - - - - - -
22/02:00am 14.4 CALM 0 0 1015.2 - 0.0 - - - - - - -
22/01:30am 14.6 CALM 0 0 1015.0 - 0.0 - - - - - - -
22/01:00am 14.7 CALM 0 0 1015.2 - 0.0 - - - - - - -
22/12:30am 15.4 CALM 0 0 1015.2 - 0.0 - - - - - - -
22/12:00am 15.3 CALM 0 0 1015.3 - 0.0 - - - - - - -
 
Date/Time
CST
Temp

°C
Wind Pressure Rain
since 9am
mm
Weather Cloud Vis
km
Sea
Height
m
Swell
Dir
 
Speed
knots
Gust
knots
hPa Trend Height
m
Period
s
Dir
21/11:30pm 15.9 SSE 1 3 1015.4 - 0.0 - - - - - - -
21/11:00pm 15.7 CALM 0 0 1015.6 - 0.0 - - - - - - -
21/10:30pm 15.9 CALM 0 0 1015.4 - 0.0 - - - - - - -
21/10:00pm 16.1 CALM 0 0 1015.6 - 0.0 - - - - - - -
21/09:30pm 16.1 CALM 0 0 1015.3 - 0.0 - - - - - - -
21/09:00pm 17.2 CALM 0 0 1015.0 - 0.0 - - - - - - -
21/08:30pm 16.8 CALM 0 0 1014.5 - 0.0 - - - - - - -
21/08:00pm 17.8 NE 2 3 1014.4 - 0.0 - - - - - - -
21/07:30pm 18.8 NE 1 2 1013.8 - 0.0 - - - - - - -
21/07:00pm 20.4 ENE 2 3 1013.6 - 0.0 - - - - - - -
21/06:30pm 22.9 NE 1 2 1013.1 - 0.0 - - - - - - -
21/06:00pm 25.0 NNE 3 5 1012.7 - 0.0 - - - - - - -
21/05:30pm 26.5 NE 5 8 1012.3 - 0.0 - - - - - - -
21/05:00pm 27.1 NE 5 10 1012.4 - 0.0 - - - - - - -
21/04:30pm 27.8 NE 6 13 1012.0 - 0.0 - - - - - - -
21/04:00pm 28.6 N 6 11 1012.3 - 0.0 - - - - - - -
21/03:30pm 29.0 N 5 8 1012.1 - 0.0 - - - - - - -
21/03:00pm 30.5 W 4 7 1012.3 - 0.0 - - - - - - -
21/02:30pm 30.2 W 3 5 1012.6 - 0.0 - - - - - - -
21/02:00pm 31.7 SE 5 11 1013.3 - 0.0 - - - - - - -
21/01:30pm 31.4 ESE 5 9 1013.5 - 0.0 - - - - - - -
21/01:00pm 31.4 E 6 12 1014.1 - 0.0 - - - - - - -
21/12:30pm 30.0 ESE 8 12 1014.7 - 0.0 - - - - - - -
21/12:00pm 29.4 ESE 6 12 1015.3 - 0.0 - - - - - - -
21/11:30am 28.9 E 8 12 1015.7 - 0.0 - - - - - - -
21/11:00am 28.3 E 7 12 1016.3 - 0.0 - - - - - - -
21/10:30am 27.0 ESE 6 9 1016.2 - 0.0 - - - - - - -
21/10:00am 26.5 SE 6 10 1016.5 - 0.0 - - - - - - -
21/09:30am 25.0 E 5 9 1016.4 - 0.0 - - - - - - -
21/09:00am 23.6 ESE 3 6 1016.4 - 0.0 - - - - - - -
21/08:30am 21.6 SE 2 4 1016.3 - 0.0 - - - - - - -
21/08:00am 18.5 SE 2 3 1016.1 - 0.0 - - - - - - -
21/07:30am 15.1 SE 2 3 1015.7 - 0.0 - - - - - - -
21/07:00am 15.0 SE 2 3 1015.8 - 0.0 - - - - - - -
21/06:30am 14.8 SSE 2 3 1015.4 - 0.0 - - - - - - -
21/06:00am 14.9 SE 2 3 1015.1 - 0.0 - - - - - - -
21/05:30am 15.0 SE 1 3 1014.9 - 0.0 - - - - - - -
21/05:00am 14.2 CALM 0 0 1015.0 - 0.0 - - - - - - -
21/04:30am 14.2 CALM 0 0 1014.5 - 0.0 - - - - - - -
21/04:00am 14.3 CALM 0 0 1014.5 - 0.0 - - - - - - -
21/03:30am 14.0 CALM 0 2 1014.4 - 0.0 - - - - - - -
21/03:00am 14.4 CALM 0 2 1014.5 - 0.0 - - - - - - -
21/02:30am 14.7 CALM 0 0 1014.6 - 0.0 - - - - - - -
21/02:00am 14.3 CALM 0 0 1015.0 - 0.0 - - - - - - -
21/01:30am 14.8 CALM 0 0 1014.8 - 0.0 - - - - - - -
21/01:00am 14.6 CALM 0 0 1015.1 - 0.0 - - - - - - -
21/12:30am 14.7 CALM 0 0 1014.8 - 0.0 - - - - - - -
21/12:00am 15.3 E 2 2 1014.8 - 0.0 - - - - - - -
 
Date/Time
CST
Temp

°C
Wind Pressure Rain
since 9am
mm
Weather Cloud Vis
km
Sea
Height
m
Swell
Dir
 
Speed
knots
Gust
knots
hPa Trend Height
m
Period
s
Dir
20/11:30pm 15.3 E 1 3 1014.8 - 0.0 - - - - - - -
20/11:00pm 15.5 E 1 2 1015.0 - 0.0 - - - - - - -
20/10:30pm 14.7 SSE 2 2 1014.7 - 0.0 - - - - - - -
20/10:00pm 14.8 S 3 3 1014.9 - 0.0 - - - - - - -
20/09:30pm 15.5 CALM 0 0 1014.5 - 0.0 - - - - - - -
20/09:00pm 15.7 CALM 0 0 1014.1 - 0.0 - - - - - - -
20/08:30pm 16.6 CALM 0 0 1013.8 - 0.0 - - - - - - -
20/08:00pm 16.7 CALM 0 0 1013.8 - 0.0 - - - - - - -
20/07:30pm 17.9 CALM 0 0 1013.2 - 0.0 - - - - - - -
20/07:00pm 19.7 CALM 0 0 1013.0 - 0.0 - - - - - - -
20/06:30pm 23.5 CALM 0 2 1012.4 - 0.0 - - - - - - -
20/06:00pm 25.6 NE 2 4 1012.3 - 0.0 - - - - - - -
20/05:30pm 27.2 NNE 4 8 1012.0 - 0.0 - - - - - - -
20/05:00pm 28.3 NNE 4 7 1012.1 - 0.0 - - - - - - -
20/04:30pm 28.3 NE 5 8 1012.0 - 0.0 - - - - - - -
20/04:00pm 29.4 NE 4 8 1012.3 - 0.0 - - - - - - -
20/03:30pm 30.1 NE 5 9 1012.2 - 0.0 - - - - - - -
20/03:00pm 30.1 N 3 7 1012.6 - 0.0 - - - - - - -
20/02:30pm 30.5 E 5 10 1012.8 - 0.0 - - - - - - -
20/02:00pm 30.6 ESE 6 10 1013.5 - 0.0 - - - - - - -
20/01:30pm 30.9 E 5 13 1013.9 - 0.0 - - - - - - -
20/01:00pm 29.6 SE 6 11 1014.6 - 0.0 - - - - - - -
20/12:30pm 29.6 E 7 12 1014.9 - 0.0 - - - - - - -
20/12:00pm 29.1 E 7 13 1015.4 - 0.0 - - - - - - -
20/11:30am 28.4 E 7 13 1015.9 - 0.0 - - - - - - -
20/11:00am 28.1 E 7 12 1016.5 - 0.0 - - - - - - -
20/10:30am 27.0 ESE 6 11 1016.6 - 0.0 - - - - - - -
20/10:00am 26.0 ESE 5 9 1016.9 - 0.0 - - - - - - -
20/09:30am 25.8 E 4 9 1017.0 - 0.0 - - - - - - -
20/09:00am 23.7 E 3 6 1016.8 - 0.0 - - - - - - -
20/08:30am 21.7 E 4 6 1016.5 - 0.0 - - - - - - -
20/08:00am 19.2 ESE 4 6 1016.2 - 0.0 - - - - - - -
20/07:30am 17.2 ESE 4 5 1015.7 - 0.0 - - - - - - -
20/07:00am 15.7 ESE 3 5 1015.5 - 0.0 - - - - - - -
20/06:30am 15.9 ESE 3 4 1015.0 - 0.0 - - - - - - -
20/06:00am 15.2 SE 2 4 1014.6 - 0.0 - - - - - - -
20/05:30am 15.9 SE 2 3 1014.3 - 0.0 - - - - - - -
20/05:00am 16.1 SSE 3 5 1014.4 - 0.0 - - - - - - -
20/04:30am 14.7 SSE 2 3 1014.0 - 0.0 - - - - - - -
20/04:00am 14.6 SE 2 3 1014.1 - 0.0 - - - - - - -
20/03:30am 14.6 SE 2 3 1013.8 - 0.0 - - - - - - -

Other Formats:

Comma delimited format used in spreadsheet applications
http://www.bom.gov.au/fwo/IDD60701/IDD60701.99501.axf

JavaScript Object Notation format (JSON) in row-major order
http://www.bom.gov.au/fwo/IDD60701/IDD60701.99501.json